createdAt,value
2023-01-13T05:42:26.658Z,100630.28
2023-01-13T05:45:41.424Z,100630.28
2023-01-13T05:48:55.409Z,100630.31
2023-01-13T05:52:09.338Z,100633.06
2023-01-13T05:55:23.506Z,100630.69
2023-01-13T05:58:39.219Z,100636.91
2023-01-13T06:01:53.139Z,100640.91
2023-01-13T06:05:07.131Z,100640.06
2023-01-13T06:08:20.956Z,100635.09
2023-01-13T06:11:34.892Z,100636.50
2023-01-13T06:14:49.956Z,100640.09
2023-01-13T06:18:05.339Z,100639.41
2023-01-13T06:21:19.343Z,100642.09
2023-01-13T06:24:33.321Z,100634.56
2023-01-13T06:27:46.954Z,100642.84
2023-01-13T06:31:03.301Z,100637.94
2023-01-13T06:34:17.320Z,100642.25
2023-01-13T06:37:31.262Z,100643.53
2023-01-13T06:40:45.059Z,100641.84
2023-01-13T06:43:57.911Z,100641.41
2023-01-13T06:47:13.260Z,100641.47
2023-01-13T06:50:27.362Z,100641.25
2023-01-13T06:53:41.320Z,100646.13
2023-01-13T06:56:54.940Z,100645.16
2023-01-13T07:00:10.341Z,100646.63
2023-01-13T07:03:26.127Z,100642.81
2023-01-13T07:06:39.998Z,100649.94
2023-01-13T07:09:53.606Z,100648.84
2023-01-13T07:13:24.766Z,100645.22
2023-01-13T07:16:38.703Z,100650.59
2023-01-13T07:19:53.775Z,100656.16
2023-01-13T07:23:07.622Z,100653.59
2023-01-13T07:26:21.248Z,100653.41
2023-01-13T07:29:35.376Z,100641.16
2023-01-13T07:32:49.311Z,100662.72
2023-01-13T07:36:05.225Z,100651.38
2023-01-13T07:39:19.368Z,100660.41
2023-01-13T07:42:50.551Z,100655.09
2023-01-13T07:46:05.746Z,100664.81
2023-01-13T07:49:19.703Z,100667.53
2023-01-13T07:52:34.658Z,100658.47
2023-01-13T07:55:48.585Z,100666.94
2023-01-13T07:59:02.551Z,100683.12
2023-01-13T08:02:16.366Z,100678.09
2023-01-13T08:05:30.400Z,100677.53
2023-01-13T08:08:45.438Z,100685.41
2023-01-13T08:12:13.033Z,100685.88
2023-01-13T08:15:27.132Z,100688.34
2023-01-13T08:18:40.787Z,100690.19
2023-01-13T08:21:54.703Z,100686.81
2023-01-13T08:25:10.731Z,100684.56
2023-01-13T08:28:25.138Z,100685.72
2023-01-13T08:31:39.123Z,100696.78
2023-01-13T08:34:52.703Z,100696.97
2023-01-13T08:38:06.631Z,100699.62
2023-01-13T08:41:35.808Z,100695.16
2023-01-13T08:44:49.782Z,100703.16
2023-01-13T08:48:04.429Z,100713.47
2023-01-13T08:51:18.373Z,100728.31
2023-01-13T08:54:32.014Z,100725.13
2023-01-13T08:57:47.242Z,100717.28
2023-01-13T09:01:06.362Z,100729.72
2023-01-13T09:04:23.342Z,100739.25
2023-01-13T09:07:37.772Z,100745.91
2023-01-13T09:10:51.953Z,100739.88
2023-01-13T09:14:06.298Z,100734.44
2023-01-13T09:17:20.516Z,100735.81
2023-01-13T09:20:34.540Z,100740.84
2023-01-13T09:23:48.285Z,100735.09
2023-01-13T09:27:04.087Z,100738.75
2023-01-13T09:30:20.838Z,100734.94
2023-01-13T09:33:52.890Z,100712.78
2023-01-13T09:37:07.335Z,100717.22
2023-01-13T09:40:22.984Z,100721.87
2023-01-13T09:43:56.611Z,100722.25
2023-01-13T09:47:15.890Z,100698.97
2023-01-13T09:50:46.557Z,100694.97
2023-01-13T09:54:01.824Z,100702.69
2023-01-13T09:57:16.328Z,100695.00
2023-01-13T10:00:36.549Z,100687.16
2023-01-13T10:03:52.040Z,100690.78
2023-01-13T10:07:06.104Z,100699.81
2023-01-13T10:10:23.639Z,100699.03
2023-01-13T10:13:37.780Z,100692.84
2023-01-13T10:16:53.764Z,100702.94
2023-01-13T10:20:16.044Z,100700.84
2023-01-13T10:23:41.964Z,100700.72
2023-01-13T10:26:59.051Z,100694.59
2023-01-13T10:30:17.378Z,100694.81
2023-01-13T10:33:34.790Z,100692.22
2023-01-13T10:37:01.659Z,100695.94
2023-01-13T10:40:18.545Z,100682.31
2023-01-13T10:43:32.696Z,100681.91
2023-01-13T10:46:53.967Z,100680.69
2023-01-13T10:50:24.688Z,100679.38
2023-01-13T10:53:47.196Z,100674.06
2023-01-13T10:57:17.542Z,100668.00
2023-01-13T11:00:32.532Z,100669.19
2023-01-13T11:03:48.257Z,100666.03
2023-01-13T11:07:02.301Z,100661.69
2023-01-13T11:10:21.355Z,100663.75
2023-01-13T11:13:36.911Z,100652.47
2023-01-13T11:16:53.729Z,100645.09
2023-01-13T11:20:16.243Z,100644.97
2023-01-13T11:23:33.230Z,100641.81
2023-01-13T11:26:50.837Z,100638.19
2023-01-13T11:30:09.986Z,100635.38
2023-01-13T11:33:31.965Z,100633.22
2023-01-13T11:36:47.841Z,100627.13
2023-01-13T11:40:04.213Z,100635.09
2023-01-13T11:43:23.661Z,100624.03
2023-01-13T11:46:38.059Z,100616.16
2023-01-13T11:49:52.073Z,100618.66
2023-01-13T11:53:18.733Z,100611.88
2023-01-13T11:57:03.324Z,100607.34
2023-01-13T12:00:28.201Z,100594.91
2023-01-13T12:03:42.122Z,100594.59
2023-01-13T12:07:01.941Z,100592.59
2023-01-13T12:10:18.887Z,100596.16
2023-01-13T12:13:40.267Z,100588.31
2023-01-13T12:16:56.111Z,100577.09
2023-01-13T12:20:18.567Z,100575.72
2023-01-13T12:23:36.189Z,100568.72
2023-01-13T12:26:53.556Z,100568.53
2023-01-13T12:30:19.311Z,100560.25
2023-01-13T12:33:43.862Z,100554.25
2023-01-13T12:37:02.610Z,100536.09
2023-01-13T12:40:23.132Z,100526.50
2023-01-13T12:43:55.197Z,100525.69
2023-01-13T12:47:36.678Z,100527.78
2023-01-13T12:51:00.733Z,100514.13
2023-01-13T12:54:57.017Z,100521.22
2023-01-13T12:58:18.265Z,100515.63
2023-01-13T13:01:39.480Z,100515.06
2023-01-13T13:04:55.189Z,100523.28
2023-01-13T13:08:16.860Z,100523.91
2023-01-13T13:11:56.330Z,100530.50
2023-01-13T13:15:21.493Z,100530.28
2023-01-13T13:18:36.307Z,100524.09
2023-01-13T13:22:19.551Z,100530.34
2023-01-13T13:25:35.340Z,100542.88
2023-01-13T13:28:55.093Z,100543.41
2023-01-13T13:33:00.989Z,100543.97
2023-01-13T13:36:23.403Z,100534.72
2023-01-13T13:39:55.632Z,100532.59
2023-01-13T13:43:30.639Z,100544.50
2023-01-13T13:46:49.471Z,100542.16
2023-01-13T13:50:07.746Z,100546.47
2023-01-13T13:53:21.696Z,100558.00
2023-01-13T13:56:38.451Z,100555.44
2023-01-13T13:59:55.916Z,100553.78
2023-01-13T14:03:22.485Z,100552.78
2023-01-13T14:06:36.530Z,100547.53
2023-01-13T14:09:52.936Z,100543.94
2023-01-13T14:13:15.017Z,100543.22
2023-01-13T14:16:30.366Z,100553.62
2023-01-13T14:19:47.822Z,100557.97
2023-01-13T14:23:01.899Z,100553.66
2023-01-13T14:26:16.622Z,100551.47
2023-01-13T14:29:30.624Z,100559.00
2023-01-13T14:32:45.908Z,100559.75
2023-01-13T14:36:16.628Z,100565.19
2023-01-13T14:39:38.860Z,100560.88
2023-01-13T14:42:58.825Z,100555.63
2023-01-13T14:46:12.781Z,100557.22
2023-01-13T14:49:32.134Z,100555.19
2023-01-13T14:52:49.355Z,100564.00
2023-01-13T14:56:36.532Z,100563.13
2023-01-13T14:59:51.955Z,100567.97
2023-01-13T15:03:07.704Z,100568.09
2023-01-13T15:06:26.422Z,100586.34
2023-01-13T15:09:41.326Z,100570.38
2023-01-13T15:12:56.181Z,100579.47
2023-01-13T15:16:16.574Z,100568.00
2023-01-13T15:19:30.554Z,100566.41
2023-01-13T15:22:45.576Z,100560.00
2023-01-13T15:26:00.994Z,100571.53
2023-01-13T15:29:15.259Z,100566.37
2023-01-13T15:32:29.166Z,100567.84
2023-01-13T15:35:43.370Z,100564.22
2023-01-13T15:38:58.798Z,100549.84
2023-01-13T15:42:36.272Z,100557.75
2023-01-13T15:46:07.573Z,100561.50
2023-01-13T15:49:24.683Z,100562.25
2023-01-13T15:52:38.589Z,100566.00
2023-01-13T15:55:54.521Z,100556.81
2023-01-13T15:59:10.981Z,100554.63
2023-01-13T16:02:25.400Z,100555.25
2023-01-13T16:05:39.396Z,100561.41
2023-01-13T16:08:53.353Z,100562.87
2023-01-13T16:12:08.396Z,100559.75
2023-01-13T16:15:24.967Z,100572.81
2023-01-13T16:18:38.928Z,100559.41
2023-01-13T16:21:53.158Z,100564.38
